CPA974 RPLL-VHHH
Flight info
| Callsign | CPA974 |
|---|---|
| Flight time | N/A |
| Altitude | 40000 |
| Route | CAB2R CAB A461 NOMAN V533 BETTY |
| Aircraft | A343/H-SDE2E3FGHIJ4J5M1RWXY/LB1D1 |
Departure
| Time | 2026-05-05 14:56 |
|---|---|
| Airport | Ninoy Aquino International Airport (RPLL) |
Arrival
| Time | N/A |
|---|---|
| Airport | Hong Kong International Airport (VHHH) |
| Time | Latitude | Longitude | Altitude | Speed | Heading |
|---|---|---|---|---|---|
| 2026-05-05 14:11 | 14.52098 | 121.01088 | 73 ft | 0 kts | 45° |
| 2026-05-05 14:14 | 14.52098 | 121.01087 | 73 ft | 0 kts | 45° |
| 2026-05-05 14:18 | 14.52097 | 121.01087 | 73 ft | 0 kts | 45° |
| 2026-05-05 14:29 | 14.52094 | 121.01084 | 62 ft | 4 kts | 45° |
| 2026-05-05 14:29 | 14.52075 | 121.01064 | 68 ft | 4 kts | 46° |
| 2026-05-05 14:30 | 14.52063 | 121.01051 | 62 ft | 4 kts | 49° |
| 2026-05-05 14:30 | 14.52043 | 121.01025 | 62 ft | 3 kts | 60° |
| 2026-05-05 14:30 | 14.52036 | 121.01013 | 62 ft | 2 kts | 82° |
| 2026-05-05 14:30 | 14.52035 | 121.01002 | 62 ft | 2 kts | 111° |
| 2026-05-05 14:31 | 14.52039 | 121.00991 | 62 ft | 2 kts | 127° |
| 2026-05-05 14:31 | 14.52046 | 121.00982 | 62 ft | 2 kts | 134° |
| 2026-05-05 14:31 | 14.52054 | 121.00974 | 62 ft | 2 kts | 136° |
| 2026-05-05 14:31 | 14.52055 | 121.00973 | 62 ft | 0 kts | 136° |
| 2026-05-05 14:38 | 14.52045 | 121.00983 | 62 ft | 5 kts | 135° |
| 2026-05-05 14:38 | 14.52008 | 121.01021 | 62 ft | 10 kts | 135° |
| 2026-05-05 14:39 | 14.51946 | 121.01086 | 65 ft | 15 kts | 134° |
| 2026-05-05 14:39 | 14.51863 | 121.01173 | 63 ft | 19 kts | 134° |
| 2026-05-05 14:39 | 14.51766 | 121.01275 | 62 ft | 20 kts | 134° |
| 2026-05-05 14:39 | 14.51740 | 121.01302 | 65 ft | 1 kts | 135° |
| 2026-05-05 14:40 | 14.51735 | 121.01307 | 65 ft | 0 kts | 135° |
| 2026-05-05 14:40 | 14.51735 | 121.01308 | 62 ft | 1 kts | 135° |
| 2026-05-05 14:41 | 14.51725 | 121.01315 | 62 ft | 3 kts | 149° |
| 2026-05-05 14:41 | 14.51698 | 121.01319 | 64 ft | 7 kts | 184° |
| 2026-05-05 14:41 | 14.51670 | 121.01317 | 64 ft | 11 kts | 183° |
| 2026-05-05 14:42 | 14.51591 | 121.01349 | 63 ft | 14 kts | 144° |
| 2026-05-05 14:42 | 14.51513 | 121.01423 | 62 ft | 16 kts | 135° |
| 2026-05-05 14:42 | 14.51505 | 121.01431 | 62 ft | 0 kts | 135° |
| 2026-05-05 14:43 | 14.51499 | 121.01437 | 69 ft | 5 kts | 135° |
| 2026-05-05 14:43 | 14.51446 | 121.01491 | 70 ft | 16 kts | 135° |
| 2026-05-05 14:44 | 14.51351 | 121.01593 | 62 ft | 24 kts | 133° |
| 2026-05-05 14:44 | 14.51235 | 121.01715 | 62 ft | 24 kts | 135° |
| 2026-05-05 14:44 | 14.51118 | 121.01835 | 64 ft | 23 kts | 136° |
| 2026-05-05 14:44 | 14.51079 | 121.01874 | 65 ft | 0 kts | 136° |
| 2026-05-05 14:45 | 14.51086 | 121.01866 | 62 ft | 3 kts | 136° |
| 2026-05-05 14:45 | 14.51101 | 121.01852 | 62 ft | 3 kts | 136° |
| 2026-05-05 14:45 | 14.51114 | 121.01839 | 63 ft | 0 kts | 136° |
| 2026-05-05 14:45 | 14.51110 | 121.01843 | 63 ft | 2 kts | 137° |
| 2026-05-05 14:46 | 14.51082 | 121.01870 | 63 ft | 11 kts | 137° |
| 2026-05-05 14:46 | 14.51015 | 121.01903 | 66 ft | 9 kts | 187° |
| 2026-05-05 14:46 | 14.50976 | 121.01875 | 66 ft | 6 kts | 233° |
| 2026-05-05 14:46 | 14.50948 | 121.01828 | 62 ft | 9 kts | 240° |
| 2026-05-05 14:47 | 14.50912 | 121.01760 | 68 ft | 12 kts | 243° |
| 2026-05-05 14:47 | 14.50869 | 121.01672 | 62 ft | 15 kts | 241° |
| 2026-05-05 14:47 | 14.50813 | 121.01575 | 62 ft | 17 kts | 238° |
| 2026-05-05 14:47 | 14.50750 | 121.01467 | 62 ft | 19 kts | 240° |
| 2026-05-05 14:48 | 14.50684 | 121.01346 | 62 ft | 19 kts | 240° |
| 2026-05-05 14:48 | 14.50619 | 121.01228 | 65 ft | 19 kts | 240° |
| 2026-05-05 14:48 | 14.50546 | 121.01097 | 65 ft | 23 kts | 240° |
| 2026-05-05 14:48 | 14.50465 | 121.00952 | 66 ft | 13 kts | 240° |
| 2026-05-05 14:49 | 14.50441 | 121.00909 | 64 ft | 9 kts | 238° |
| 2026-05-05 14:49 | 14.50391 | 121.00820 | 62 ft | 20 kts | 241° |
| 2026-05-05 14:49 | 14.50305 | 121.00666 | 65 ft | 29 kts | 240° |
| 2026-05-05 14:49 | 14.50221 | 121.00517 | 61 ft | 10 kts | 240° |
| 2026-05-05 14:50 | 14.50165 | 121.00417 | 63 ft | 21 kts | 240° |
| 2026-05-05 14:50 | 14.50075 | 121.00256 | 62 ft | 30 kts | 240° |
| 2026-05-05 14:50 | 14.49985 | 121.00092 | 65 ft | 21 kts | 240° |
| 2026-05-05 14:50 | 14.49914 | 120.99979 | 66 ft | 18 kts | 223° |
| 2026-05-05 14:51 | 14.49876 | 120.99964 | 70 ft | 0 kts | 179° |
| 2026-05-05 14:51 | 14.49892 | 120.99963 | 65 ft | 3 kts | 161° |
| 2026-05-05 14:51 | 14.49899 | 120.99961 | 63 ft | 0 kts | 161° |
| 2026-05-05 14:54 | 14.49876 | 120.99970 | 69 ft | 14 kts | 158° |
| 2026-05-05 14:54 | 14.49812 | 121.00012 | 65 ft | 13 kts | 126° |
| 2026-05-05 14:55 | 14.49807 | 121.00035 | 64 ft | 7 kts | 81° |
| 2026-05-05 14:55 | 14.49855 | 121.00142 | 63 ft | 33 kts | 64° |
| 2026-05-05 14:55 | 14.50058 | 121.00524 | 60 ft | 89 kts | 59° |
| 2026-05-05 14:55 | 14.50464 | 121.01234 | 66 ft | 138 kts | 60° |
| 2026-05-05 14:56 | 14.51019 | 121.02220 | 120 ft | 175 kts | 61° |
| 2026-05-05 14:56 | 14.51665 | 121.03304 | 708 ft | 178 kts | 60° |
| 2026-05-05 14:56 | 14.52332 | 121.04406 | 1289 ft | 183 kts | 57° |
| 2026-05-05 14:56 | 14.53027 | 121.05540 | 1944 ft | 185 kts | 58° |
| 2026-05-05 14:57 | 14.53675 | 121.06618 | 2468 ft | 171 kts | 59° |
| 2026-05-05 14:57 | 14.54285 | 121.07633 | 2930 ft | 167 kts | 59° |
| 2026-05-05 14:57 | 14.54910 | 121.08672 | 3413 ft | 176 kts | 60° |
| 2026-05-05 14:57 | 14.55572 | 121.09778 | 3995 ft | 186 kts | 60° |
| 2026-05-05 14:58 | 14.56263 | 121.10935 | 4658 ft | 192 kts | 60° |
| 2026-05-05 14:58 | 14.56973 | 121.12126 | 5326 ft | 197 kts | 60° |
| 2026-05-05 14:58 | 14.57697 | 121.13344 | 6010 ft | 201 kts | 60° |